createdAt,value
2017-04-04T00:00:12.330Z,101233
2017-04-04T00:01:12.720Z,101229
2017-04-04T00:02:12.279Z,101221
2017-04-04T00:03:12.355Z,101227
2017-04-04T00:04:12.400Z,101222
2017-04-04T00:05:12.493Z,101223
2017-04-04T00:06:13.187Z,101221
2017-04-04T00:07:13.061Z,101222
2017-04-04T00:08:12.598Z,101222
2017-04-04T00:09:12.688Z,101221
2017-04-04T00:10:12.689Z,101221
2017-04-04T00:11:13.238Z,101224
2017-04-04T00:12:13.404Z,101222
2017-04-04T00:13:12.707Z,101220
2017-04-04T00:14:13.296Z,101221
2017-04-04T00:15:13.387Z,101218
2017-04-04T00:16:13.439Z,101220
2017-04-04T00:17:12.918Z,101213
2017-04-04T00:18:13.851Z,101218
2017-04-04T00:19:13.597Z,101217
2017-04-04T00:20:13.681Z,101220
2017-04-04T00:21:13.141Z,101211
2017-04-04T00:22:13.215Z,101215
2017-04-04T00:23:13.710Z,101211
2017-04-04T00:24:13.971Z,101210
2017-04-04T00:25:13.835Z,101213
2017-04-04T00:26:13.933Z,101211
2017-04-04T00:27:13.386Z,101209
2017-04-04T00:28:13.438Z,101214
2017-04-04T00:29:14.047Z,101215
2017-04-04T00:30:13.704Z,101210
2017-04-04T00:31:13.589Z,101212
2017-04-04T00:32:14.220Z,101214
2017-04-04T00:33:14.305Z,101215
2017-04-04T00:34:14.318Z,101219
2017-04-04T00:35:14.737Z,101212
2017-04-04T00:36:13.824Z,101215
2017-04-04T00:37:14.469Z,101213
2017-04-04T00:38:14.003Z,101210
2017-04-04T00:39:14.009Z,101214
2017-04-04T00:40:14.578Z,101213
2017-04-04T00:41:14.264Z,101212
2017-04-04T00:42:14.647Z,101210
2017-04-04T00:43:14.171Z,101211
2017-04-04T00:44:14.724Z,101213
2017-04-04T00:45:14.199Z,101209
2017-04-04T00:46:14.737Z,101211
2017-04-04T00:47:14.416Z,101210
2017-04-04T00:48:14.830Z,101207
2017-04-04T00:49:14.324Z,101204
2017-04-04T00:50:14.378Z,101201
2017-04-04T00:51:14.386Z,101204
2017-04-04T00:52:14.486Z,101195
2017-04-04T00:53:14.792Z,101201
2017-04-04T00:54:14.571Z,101200
2017-04-04T00:55:15.236Z,101201
2017-04-04T00:56:15.250Z,101201
2017-04-04T00:57:15.342Z,101200
2017-04-04T00:58:14.821Z,101201
2017-04-04T00:59:15.069Z,101198
2017-04-04T01:00:14.913Z,101198
2017-04-04T01:01:15.503Z,101198
2017-04-04T01:02:15.009Z,101200
2017-04-04T01:03:15.566Z,101198
2017-04-04T01:04:15.630Z,101195
2017-04-04T01:05:15.770Z,101193
2017-04-04T01:06:15.193Z,101190
2017-04-04T01:07:15.719Z,101192
2017-04-04T01:08:15.778Z,101193
2017-04-04T01:09:15.868Z,101187
2017-04-04T01:10:15.857Z,101184
2017-04-04T01:11:15.556Z,101191
2017-04-04T01:12:15.959Z,101189
2017-04-04T01:13:15.982Z,101188
2017-04-04T01:14:15.453Z,101186
2017-04-04T01:15:15.574Z,101187
2017-04-04T01:16:16.186Z,101184
2017-04-04T01:17:16.365Z,101184
2017-04-04T01:18:16.328Z,101189
2017-04-04T01:19:16.336Z,101182
2017-04-04T01:20:15.839Z,101185
2017-04-04T01:21:15.925Z,101187
2017-04-04T01:22:16.048Z,101182
2017-04-04T01:23:16.943Z,101181
2017-04-04T01:24:16.691Z,101177
2017-04-04T01:25:16.703Z,101180
2017-04-04T01:26:16.173Z,101179
2017-04-04T01:27:16.749Z,101183
2017-04-04T01:28:16.267Z,101181
2017-04-04T01:29:17.045Z,101182
2017-04-04T01:30:16.999Z,101181
2017-04-04T01:31:17.022Z,101187
2017-04-04T01:32:17.075Z,101186
2017-04-04T01:33:16.628Z,101176
2017-04-04T01:34:16.646Z,101180
2017-04-04T01:35:16.897Z,101178
2017-04-04T01:36:17.330Z,101176
2017-04-04T01:37:17.345Z,101182
2017-04-04T01:38:17.392Z,101181
2017-04-04T01:39:16.920Z,101184
2017-04-04T01:40:16.941Z,101186
2017-04-04T01:41:17.753Z,101182
2017-04-04T01:42:17.657Z,101184
2017-04-04T01:43:17.155Z,101184
2017-04-04T01:44:17.757Z,101176
2017-04-04T01:45:17.230Z,101180
2017-04-04T01:46:17.904Z,101183
2017-04-04T01:47:17.549Z,101181
2017-04-04T01:48:18.016Z,101178
2017-04-04T01:49:18.094Z,101177
2017-04-04T01:50:18.130Z,101177
2017-04-04T01:51:17.578Z,101173
2017-04-04T01:52:18.151Z,101178
2017-04-04T01:53:17.835Z,101177
2017-04-04T01:54:18.300Z,101173
2017-04-04T01:55:17.812Z,101174
2017-04-04T01:56:17.822Z,101165
2017-04-04T01:57:17.887Z,101165
2017-04-04T01:58:18.495Z,101162
2017-04-04T01:59:18.256Z,101160
2017-04-04T02:00:18.629Z,101159
2017-04-04T02:01:18.140Z,101164
2017-04-04T02:02:18.142Z,101160
2017-04-04T02:03:18.762Z,101164
2017-04-04T02:04:18.328Z,101157
2017-04-04T02:05:19.076Z,101155
2017-04-04T02:06:18.939Z,101158
2017-04-04T02:07:18.488Z,101160
2017-04-04T02:08:19.059Z,101162
2017-04-04T02:09:18.545Z,101163
2017-04-04T02:10:19.147Z,101168
2017-04-04T02:11:19.362Z,101169
2017-04-04T02:12:18.640Z,101166
2017-04-04T02:13:18.698Z,101164
2017-04-04T02:14:19.275Z,101165
2017-04-04T02:15:18.781Z,101160
2017-04-04T02:16:19.447Z,101160
2017-04-04T02:17:19.708Z,101160
2017-04-04T02:18:19.602Z,101159
2017-04-04T02:19:19.618Z,101164
2017-04-04T02:20:19.105Z,101159
2017-04-04T02:21:19.182Z,101158
2017-04-04T02:22:19.765Z,101159
2017-04-04T02:23:19.952Z,101159
2017-04-04T02:24:19.857Z,101156
2017-04-04T02:25:19.343Z,101158
2017-04-04T02:26:19.464Z,101154
2017-04-04T02:27:20.099Z,101155
2017-04-04T02:28:20.158Z,101156
2017-04-04T02:29:20.394Z,101156
2017-04-04T02:30:19.748Z,101149
2017-04-04T02:31:20.345Z,101155
2017-04-04T02:32:20.431Z,101155
2017-04-04T02:33:20.533Z,101155
2017-04-04T02:34:19.961Z,101158
2017-04-04T02:35:20.141Z,101154
2017-04-04T02:36:20.049Z,101159
2017-04-04T02:37:20.055Z,101153
2017-04-04T02:38:20.154Z,101155
2017-04-04T02:39:20.783Z,101154
2017-04-04T02:40:20.247Z,101154
2017-04-04T02:41:20.549Z,101153
2017-04-04T02:42:20.946Z,101155
2017-04-04T02:43:20.962Z,101152
2017-04-04T02:44:20.479Z,101155
2017-04-04T02:45:20.530Z,101154
2017-04-04T02:46:21.142Z,101152
2017-04-04T02:47:21.361Z,101152
2017-04-04T02:55:51.213Z,101149
2017-04-04T02:56:51.033Z,101148
2017-04-04T02:57:51.690Z,101148
2017-04-04T02:58:52.368Z,101142
2017-04-04T02:59:51.279Z,101152
2017-04-04T03:00:51.866Z,101145
2017-04-04T03:01:52.083Z,101148
2017-04-04T03:02:51.428Z,101139
2017-04-04T03:03:52.086Z,101144
2017-04-04T03:04:51.579Z,101143
2017-04-04T03:05:52.242Z,101142
2017-04-04T03:06:51.963Z,101135
2017-04-04T03:07:51.810Z,101143
2017-04-04T03:08:52.366Z,101140
2017-04-04T03:09:52.434Z,101139
2017-04-04T03:10:52.469Z,101145
2017-04-04T03:11:51.940Z,101136
2017-04-04T03:12:52.158Z,101137
2017-04-04T03:13:52.133Z,101137
2017-04-04T03:14:52.658Z,101137
2017-04-04T03:15:52.753Z,101132
2017-04-04T03:16:52.277Z,101126
2017-04-04T03:17:52.276Z,101132
2017-04-04T03:18:52.541Z,101128
2017-04-04T03:19:52.440Z,101123
2017-04-04T03:20:52.976Z,101129
2017-04-04T03:21:52.487Z,101124
2017-04-04T03:22:52.628Z,101122
2017-04-04T03:23:53.228Z,101124
2017-04-04T03:24:53.369Z,101120
2017-04-04T03:25:52.721Z,101119
2017-04-04T03:26:53.298Z,101119
2017-04-04T03:27:53.388Z,101115
2017-04-04T03:28:53.471Z,101120
2017-04-04T03:29:52.984Z,101118
2017-04-04T03:30:53.219Z,101114
2017-04-04T03:31:53.582Z,101116
2017-04-04T03:32:53.096Z,101116
2017-04-04T03:33:53.686Z,101116
2017-04-04T03:34:53.225Z,101112
2017-04-04T03:35:53.824Z,101115
2017-04-04T03:36:53.585Z,101112
2017-04-04T03:37:53.912Z,101106
2017-04-04T03:38:53.436Z,101105
2017-04-04T03:39:54.038Z,101111
2017-04-04T03:40:53.542Z,101108
2017-04-04T03:41:53.537Z,101107
2017-04-04T03:42:54.368Z,101105
2017-04-04T03:43:53.655Z,101105
2017-04-04T03:44:54.313Z,101105
2017-04-04T03:45:53.790Z,101108
2017-04-04T03:46:54.403Z,101113
2017-04-04T03:47:54.002Z,101111
2017-04-04T03:48:54.709Z,101108
2017-04-04T03:49:54.511Z,101112
2017-04-04T03:50:53.987Z,101111
2017-04-04T03:51:54.554Z,101114
2017-04-04T03:52:54.169Z,101112
2017-04-04T03:53:54.200Z,101110
2017-04-04T03:54:54.904Z,101110
2017-04-04T03:55:54.253Z,101112
2017-04-04T03:56:54.813Z,101112
2017-04-04T03:57:54.940Z,101106
2017-04-04T03:58:54.472Z,101113
2017-04-04T03:59:54.565Z,101112
2017-04-04T04:00:55.315Z,101117
2017-04-04T04:01:55.248Z,101114
2017-04-04T04:02:54.778Z,101116
2017-04-04T04:03:54.809Z,101116
2017-04-04T04:04:55.364Z,101117
2017-04-04T04:05:55.397Z,101115
2017-04-04T04:06:55.579Z,101116
2017-04-04T04:07:54.941Z,101122
2017-04-04T04:08:54.881Z,101113
2017-04-04T04:09:54.971Z,101122
2017-04-04T04:10:55.037Z,101120
2017-04-04T04:11:55.127Z,101119
2017-04-04T04:12:55.391Z,101113
2017-04-04T04:13:55.860Z,101117
2017-04-04T04:14:55.360Z,101119
2017-04-04T04:15:55.407Z,101118
2017-04-04T04:16:55.438Z,101119
2017-04-04T04:17:55.570Z,101120
2017-04-04T04:18:55.804Z,101114
2017-04-04T04:19:55.598Z,101112
2017-04-04T04:20:56.209Z,101115
2017-04-04T04:21:55.713Z,101120
2017-04-04T04:22:56.348Z,101108
2017-04-04T04:23:55.820Z,101114
2017-04-04T04:24:56.162Z,101117
2017-04-04T04:25:55.909Z,101120
2017-04-04T04:26:55.928Z,101120
2017-04-04T04:27:56.060Z,101124
2017-04-04T04:28:56.607Z,101126
2017-04-04T04:29:56.163Z,101125
2017-04-04T04:30:56.900Z,101132
2017-04-04T04:31:56.239Z,101131
2017-04-04T04:32:56.376Z,101124
2017-04-04T04:33:56.940Z,101125
2017-04-04T04:34:57.005Z,101131
2017-04-04T04:35:56.553Z,101128
2017-04-04T04:36:57.276Z,101130
2017-04-04T04:37:57.158Z,101130
2017-04-04T04:38:57.159Z,101136
2017-04-04T04:39:56.694Z,101135
2017-04-04T04:40:57.311Z,101136
2017-04-04T04:41:57.346Z,101132
2017-04-04T04:42:57.553Z,101139
2017-04-04T04:43:56.832Z,101139
2017-04-04T04:44:56.921Z,101139
2017-04-04T04:45:57.546Z,101137
2017-04-04T04:46:57.106Z,101140
2017-04-04T04:47:57.171Z,101138
2017-04-04T04:48:57.524Z,101142
2017-04-04T04:49:57.839Z,101142
2017-04-04T04:50:57.343Z,101141
2017-04-04T04:51:57.414Z,101136
2017-04-04T04:52:57.453Z,101145
2017-04-04T04:53:57.544Z,101148
2017-04-04T04:54:58.419Z,101147
2017-04-04T04:55:58.185Z,101145
2017-04-04T04:56:57.702Z,101146
2017-04-04T04:57:58.255Z,101148
2017-04-04T04:58:57.792Z,101146
2017-04-04T04:59:58.322Z,101141
2017-04-04T05:00:58.066Z,101145
2017-04-04T05:01:58.410Z,101146
2017-04-04T05:02:57.887Z,101148
2017-04-04T05:03:58.508Z,101143
2017-04-04T05:04:58.054Z,101145
2017-04-04T05:05:58.596Z,101148
2017-04-04T05:06:58.448Z,101147
2017-04-04T05:07:58.686Z,101146
2017-04-04T05:08:58.708Z,101152
2017-04-04T05:09:58.312Z,101152
2017-04-04T05:10:58.932Z,101149
2017-04-04T05:11:59.016Z,101151
2017-04-04T05:12:58.750Z,101148
2017-04-04T05:13:58.593Z,101152
2017-04-04T05:14:59.241Z,101150
2017-04-04T05:15:59.334Z,101154
2017-04-04T05:16:58.837Z,101154
2017-04-04T05:17:59.555Z,101156
2017-04-04T05:18:58.942Z,101151
2017-04-04T05:19:59.025Z,101151
2017-04-04T05:20:59.030Z,101157
2017-04-04T05:21:59.139Z,101156
2017-04-04T05:22:59.258Z,101159
2017-04-04T05:23:59.472Z,101153
2017-04-04T05:24:59.890Z,101158
2017-04-04T05:26:00.019Z,101156
2017-04-04T05:26:59.444Z,101159
2017-04-04T05:28:00.024Z,101158
2017-04-04T05:28:59.455Z,101161
2017-04-04T05:30:00.289Z,101165
2017-04-04T05:31:00.097Z,101165
2017-04-04T05:32:00.142Z,101159
2017-04-04T05:32:59.671Z,101169
2017-04-04T05:34:00.324Z,101171
2017-04-04T05:34:59.865Z,101174
2017-04-04T05:36:00.430Z,101176
2017-04-04T05:37:00.521Z,101176
2017-04-04T05:38:00.646Z,101175
2017-04-04T05:39:00.131Z,101177
2017-04-04T05:40:00.711Z,101178
2017-04-04T05:41:00.247Z,101176
2017-04-04T05:42:00.416Z,101180
2017-04-04T05:43:00.902Z,101178
2017-04-04T05:44:01.169Z,101180
2017-04-04T05:45:01.024Z,101177
2017-04-04T05:46:01.120Z,101178
2017-04-04T05:47:01.147Z,101179
2017-04-04T05:48:00.787Z,101180
2017-04-04T05:49:01.338Z,101182
2017-04-04T05:50:01.398Z,101180
2017-04-04T05:51:00.891Z,101183
2017-04-04T05:52:01.450Z,101178
2017-04-04T05:53:01.545Z,101179
2017-04-04T05:54:01.078Z,101181
2017-04-04T05:55:01.989Z,101178
2017-04-04T05:56:01.664Z,101186
2017-04-04T05:57:01.770Z,101184
2017-04-04T05:58:01.864Z,101183
2017-04-04T05:59:01.324Z,101178
2017-04-04T06:00:01.389Z,101181
2017-04-04T06:01:02.020Z,101174
2017-04-04T06:02:01.494Z,101179
2017-04-04T06:03:02.063Z,101183
2017-04-04T06:04:01.552Z,101179
2017-04-04T06:05:01.630Z,101179
2017-04-04T06:06:01.643Z,101181
2017-04-04T06:07:01.766Z,101180
2017-04-04T06:08:02.342Z,101180
2017-04-04T06:09:02.414Z,101177
2017-04-04T06:10:02.430Z,101175
2017-04-04T06:11:01.929Z,101175
2017-04-04T06:12:02.462Z,101174
2017-04-04T06:13:01.937Z,101172
2017-04-04T06:14:01.937Z,101174
2017-04-04T06:15:02.570Z,101172
2017-04-04T06:16:02.116Z,101171
2017-04-04T06:17:02.132Z,101170
2017-04-04T06:18:02.115Z,101172
2017-04-04T06:19:02.184Z,101174
2017-04-04T06:20:02.812Z,101177
2017-04-04T06:21:02.910Z,101170
2017-04-04T06:22:02.934Z,101170
2017-04-04T06:23:03.333Z,101175
2017-04-04T06:24:02.555Z,101177
2017-04-04T06:25:03.141Z,101174
2017-04-04T06:26:03.208Z,101175
2017-04-04T06:27:02.678Z,101174
2017-04-04T06:28:03.279Z,101174
2017-04-04T06:29:02.811Z,101180
2017-04-04T06:30:03.415Z,101183
2017-04-04T06:31:03.454Z,101181
2017-04-04T06:32:03.521Z,101181
2017-04-04T06:33:03.087Z,101179
2017-04-04T06:34:03.654Z,101176
2017-04-04T06:35:03.166Z,101176
2017-04-04T06:36:03.245Z,101174
2017-04-04T06:37:03.238Z,101173
2017-04-04T06:38:03.868Z,101175
2017-04-04T06:39:03.429Z,101170
2017-04-04T06:40:04.031Z,101175
2017-04-04T06:41:03.669Z,101173
2017-04-04T06:42:03.480Z,101167
2017-04-04T06:43:03.611Z,101173
2017-04-04T06:44:04.184Z,101171
2017-04-04T06:45:04.241Z,101177
2017-04-04T06:46:03.733Z,101173
2017-04-04T06:47:03.815Z,101172
2017-04-04T06:48:04.443Z,101170
2017-04-04T06:49:04.546Z,101172
2017-04-04T06:50:04.566Z,101173
2017-04-04T06:51:04.493Z,101173
2017-04-04T06:52:04.211Z,101167
2017-04-04T06:53:04.047Z,101181
2017-04-04T06:54:04.048Z,101177
2017-04-04T06:55:04.736Z,101180
2017-04-04T06:56:04.760Z,101176
2017-04-04T06:57:04.854Z,101177
2017-04-04T06:58:04.365Z,101179
2017-04-04T06:59:04.339Z,101174
2017-04-04T07:00:04.422Z,101177
2017-04-04T07:01:04.487Z,101183
2017-04-04T07:02:05.072Z,101183
2017-04-04T07:03:04.533Z,101180
2017-04-04T07:04:05.870Z,101184
2017-04-04T07:05:05.168Z,101184
2017-04-04T07:06:05.264Z,101182
2017-04-04T07:07:05.324Z,101180
2017-04-04T07:08:04.808Z,101179
2017-04-04T07:09:04.868Z,101180
2017-04-04T07:10:06.015Z,101189
2017-04-04T07:11:05.498Z,101188
2017-04-04T07:12:05.569Z,101191
2017-04-04T07:13:05.580Z,101188
2017-04-04T07:14:05.893Z,101188
2017-04-04T07:15:06.420Z,101188
2017-04-04T07:16:06.352Z,101189
2017-04-04T07:17:05.226Z,101187
2017-04-04T07:18:05.792Z,101186
2017-04-04T07:19:28.209Z,101189
2017-04-04T07:20:27.058Z,101185
2017-04-04T07:21:28.078Z,101184
2017-04-04T07:22:27.844Z,101184
2017-04-04T07:23:27.801Z,101181
2017-04-04T07:24:27.381Z,101183
2017-04-04T07:25:27.302Z,101182
2017-04-04T07:26:27.860Z,101182
2017-04-04T07:27:27.299Z,101178
2017-04-04T07:28:27.817Z,101179
2017-04-04T07:29:27.925Z,101184
2017-04-04T07:30:28.136Z,101186
2017-04-04T07:31:27.972Z,101183
2017-04-04T07:32:27.512Z,101186
2017-04-04T07:33:28.848Z,101187
2017-04-04T07:34:28.082Z,101192
2017-04-04T07:35:28.196Z,101190
2017-04-04T07:36:27.643Z,101189
2017-04-04T07:37:27.607Z,101189
2017-04-04T07:38:28.420Z,101193
2017-04-04T07:39:27.779Z,101187
2017-04-04T07:40:28.413Z,101198
2017-04-04T07:41:28.606Z,101195
2017-04-04T07:42:28.488Z,101197
2017-04-04T07:43:28.053Z,101200
2017-04-04T07:44:28.630Z,101198
2017-04-04T07:45:28.668Z,101169
2017-04-04T07:46:28.145Z,101203
2017-04-04T07:47:28.074Z,101195
2017-04-04T07:48:28.030Z,101202
2017-04-04T07:49:28.311Z,101202
2017-04-04T07:50:28.700Z,101206
2017-04-04T07:51:29.568Z,101204
2017-04-04T07:52:28.924Z,101201
2017-04-04T07:53:28.468Z,101203
2017-04-04T07:54:29.077Z,101205
2017-04-04T07:55:28.635Z,101203
2017-04-04T07:56:28.625Z,101206
2017-04-04T07:57:28.586Z,101208
2017-04-04T07:58:29.395Z,101209
2017-04-04T07:59:29.857Z,101207
2017-04-04T08:00:29.977Z,101210
2017-04-04T08:01:28.665Z,101204
2017-04-04T08:02:29.340Z,101206
2017-04-04T08:03:30.798Z,101206
2017-04-04T08:04:29.533Z,101205
2017-04-04T08:05:29.576Z,101201
2017-04-04T08:06:30.039Z,101199
2017-04-04T08:07:28.922Z,101201
2017-04-04T08:08:29.687Z,101198
2017-04-04T08:09:29.771Z,101201
2017-04-04T08:10:30.033Z,101200
2017-04-04T08:11:29.915Z,101201
2017-04-04T08:12:29.290Z,101203
2017-04-04T08:13:30.018Z,101203
2017-04-04T08:14:30.104Z,101204
2017-04-04T08:15:31.215Z,101202
2017-04-04T08:16:29.369Z,101205
2017-04-04T08:17:29.276Z,101201
2017-04-04T08:18:29.377Z,101199
2017-04-04T08:19:29.991Z,101196
2017-04-04T08:20:30.039Z,101200
2017-04-04T08:21:29.638Z,101198
2017-04-04T08:22:30.226Z,101197
2017-04-04T08:23:29.700Z,101199
2017-04-04T08:24:30.297Z,101200
2017-04-04T08:25:29.747Z,101199
2017-04-04T08:26:29.750Z,101193
2017-04-04T08:27:30.617Z,101200
2017-04-04T08:28:29.939Z,101202
2017-04-04T08:29:30.054Z,101198
2017-04-04T08:30:30.039Z,101200
2017-04-04T08:31:30.772Z,101201
2017-04-04T08:32:30.299Z,101203
2017-04-04T08:33:31.298Z,101204
2017-04-04T08:34:30.493Z,101207
2017-04-04T08:35:30.872Z,101211
2017-04-04T08:36:30.423Z,101204
2017-04-04T08:37:31.617Z,101209
2017-04-04T08:38:31.002Z,101210
2017-04-04T08:39:30.473Z,101208
2017-04-04T08:40:30.658Z,101209
2017-04-04T08:41:31.203Z,101210
2017-04-04T08:42:30.938Z,101203
2017-04-04T08:43:31.187Z,101210
2017-04-04T08:44:31.246Z,101209
2017-04-04T08:45:30.799Z,101209
2017-04-04T08:46:30.922Z,101207
2017-04-04T08:47:31.479Z,101206
2017-04-04T08:48:32.321Z,101211
2017-04-04T08:49:30.880Z,101211
2017-04-04T08:50:31.185Z,101214
2017-04-04T08:51:31.726Z,101210
2017-04-04T08:52:31.917Z,101207
2017-04-04T08:53:32.203Z,101213
2017-04-04T08:54:32.229Z,101214
2017-04-04T08:55:31.335Z,101223
2017-04-04T08:56:32.629Z,101218
2017-04-04T08:57:31.539Z,101214
2017-04-04T08:58:32.377Z,101217
2017-04-04T08:59:31.629Z,101220
2017-04-04T09:00:32.916Z,101211
2017-04-04T09:01:32.449Z,101216
2017-04-04T09:02:32.332Z,101214
2017-04-04T09:03:31.812Z,101216
2017-04-04T09:04:32.202Z,101216
2017-04-04T09:05:32.837Z,101220
2017-04-04T09:06:32.583Z,101217
2017-04-04T09:07:32.596Z,101218
2017-04-04T09:08:32.202Z,101219
2017-04-04T09:09:32.828Z,101220
2017-04-04T09:10:32.784Z,101216
2017-04-04T09:11:32.334Z,101218
2017-04-04T09:12:32.997Z,101220
2017-04-04T09:13:33.063Z,101212
2017-04-04T09:14:32.531Z,101217
2017-04-04T09:15:33.180Z,101215
2017-04-04T09:16:33.273Z,101221
2017-04-04T09:17:33.631Z,101216
2017-04-04T09:18:32.618Z,101221
2017-04-04T09:19:32.666Z,101216
2017-04-04T09:20:32.638Z,101221
2017-04-04T09:21:32.810Z,101220
2017-04-04T09:22:33.368Z,101220
2017-04-04T09:23:35.424Z,101218
2017-04-04T09:24:34.574Z,101215
2017-04-04T09:25:33.873Z,101212
2017-04-04T09:26:34.312Z,101212
2017-04-04T09:27:35.370Z,101206
2017-04-04T09:28:33.712Z,101213
2017-04-04T09:29:37.375Z,101208
2017-04-04T09:30:33.589Z,101210
2017-04-04T09:31:34.105Z,101202
2017-04-04T09:32:33.835Z,101206
2017-04-04T09:33:34.330Z,101202
2017-04-04T09:34:34.534Z,101203
2017-04-04T09:35:33.203Z,101195
2017-04-04T09:36:33.284Z,101200
2017-04-04T09:37:36.517Z,101202
2017-04-04T09:38:35.761Z,101203
2017-04-04T09:39:33.928Z,101205
2017-04-04T09:40:33.414Z,101201
2017-04-04T09:41:34.001Z,101203
2017-04-04T09:42:34.056Z,101201
2017-04-04T09:43:34.114Z,101202
2017-04-04T09:44:34.356Z,101203
2017-04-04T09:45:33.708Z,101201
2017-04-04T09:46:33.700Z,101203
2017-04-04T09:47:34.260Z,101205
2017-04-04T09:48:33.707Z,101203
2017-04-04T09:49:34.339Z,101204
2017-04-04T09:50:35.714Z,101201
2017-04-04T09:51:34.410Z,101198
2017-04-04T09:52:34.724Z,101202
2017-04-04T09:53:34.592Z,101199
2017-04-04T09:54:35.305Z,101198
2017-04-04T09:55:34.678Z,101202
2017-04-04T09:56:34.366Z,101202
2017-04-04T09:57:34.752Z,101203
2017-04-04T09:58:34.222Z,101201
2017-04-04T09:59:34.848Z,101203
2017-04-04T10:00:34.927Z,101199
2017-04-04T10:01:35.072Z,101198
2017-04-04T10:02:35.885Z,101199
2017-04-04T10:03:34.465Z,101201
2017-04-04T10:04:35.037Z,101200
2017-04-04T10:05:34.620Z,101198
2017-04-04T10:06:35.100Z,101192
2017-04-04T10:07:35.227Z,101196
2017-04-04T10:08:36.645Z,101196
2017-04-04T10:09:34.788Z,101197
2017-04-04T10:10:35.381Z,101196
2017-04-04T10:11:34.889Z,101195
2017-04-04T10:12:34.835Z,101194
2017-04-04T10:13:34.921Z,101189
2017-04-04T10:14:35.179Z,101195
2017-04-04T10:15:35.607Z,101193
2017-04-04T10:16:35.662Z,101191
2017-04-04T10:17:36.288Z,101194
2017-04-04T10:18:35.857Z,101198
2017-04-04T10:19:35.375Z,101189
2017-04-04T10:20:36.154Z,101192
2017-04-04T10:21:35.466Z,101191
2017-04-04T10:22:35.464Z,101194
2017-04-04T10:23:36.026Z,101188
2017-04-04T10:24:36.088Z,101185
2017-04-04T10:25:35.629Z,101190
2017-04-04T10:26:37.056Z,101190
2017-04-04T10:27:35.773Z,101186
2017-04-04T10:28:35.882Z,101185
2017-04-04T10:29:36.412Z,101185
2017-04-04T10:30:35.904Z,101182
2017-04-04T10:31:35.953Z,101186
2017-04-04T10:32:36.150Z,101189
2017-04-04T10:33:35.985Z,101184
2017-04-04T10:34:36.655Z,101178
2017-04-04T10:35:36.202Z,101179
2017-04-04T10:36:36.197Z,101178
2017-04-04T10:37:36.797Z,101183
2017-04-04T10:38:36.982Z,101183
2017-04-04T10:39:36.797Z,101188
2017-04-04T10:40:36.928Z,101186
2017-04-04T10:41:37.517Z,101178
2017-04-04T10:42:36.490Z,101185
2017-04-04T10:43:37.087Z,101184
2017-04-04T10:44:37.196Z,101182
2017-04-04T10:45:36.592Z,101168
2017-04-04T10:46:37.126Z,101182
2017-04-04T10:47:36.646Z,101182
2017-04-04T10:48:37.322Z,101190
2017-04-04T10:49:36.743Z,101185
2017-04-04T10:50:37.441Z,101182
2017-04-04T10:51:37.323Z,101182
2017-04-04T10:52:37.460Z,101187
2017-04-04T10:53:37.521Z,101184
2017-04-04T10:54:38.191Z,101188
2017-04-04T10:55:37.731Z,101182
2017-04-04T10:56:37.335Z,101182
2017-04-04T10:57:37.288Z,101179
2017-04-04T10:58:37.847Z,101183
2017-04-04T10:59:37.913Z,101184
2017-04-04T11:00:37.912Z,101178
2017-04-04T11:01:37.989Z,101178
2017-04-04T11:02:37.701Z,101145
2017-04-04T11:03:37.616Z,101179
2017-04-04T11:04:38.180Z,101174
2017-04-04T11:05:37.722Z,101174
2017-04-04T11:06:38.980Z,101175
2017-04-04T11:07:37.918Z,101170
2017-04-04T11:08:38.010Z,101171
2017-04-04T11:09:38.007Z,101163
2017-04-04T11:10:38.087Z,101167
2017-04-04T11:11:38.229Z,101163
2017-04-04T11:12:38.205Z,101167
2017-04-04T11:13:38.385Z,101163
2017-04-04T11:14:38.231Z,101163
2017-04-04T11:15:39.523Z,101166
2017-04-04T11:16:38.929Z,101164
2017-04-04T11:17:39.690Z,101161
2017-04-04T11:18:38.514Z,101156
2017-04-04T11:19:38.575Z,101156
2017-04-04T11:20:39.108Z,101154
2017-04-04T11:21:39.112Z,101148
2017-04-04T11:22:39.707Z,101151
2017-04-04T11:23:38.732Z,101149
2017-04-04T11:24:38.825Z,101153
2017-04-04T11:25:38.770Z,101141
2017-04-04T11:26:39.547Z,101140
2017-04-04T11:27:38.810Z,101153
2017-04-04T11:28:38.903Z,101152
2017-04-04T11:29:39.508Z,101155
2017-04-04T11:30:39.000Z,101155
2017-04-04T11:31:38.966Z,101151
2017-04-04T11:32:39.798Z,101151
2017-04-04T11:33:39.135Z,101145
2017-04-04T11:34:39.732Z,101148
2017-04-04T11:35:40.447Z,101147
2017-04-04T11:36:39.851Z,101146
2017-04-04T11:37:39.832Z,101151
2017-04-04T11:38:40.978Z,101152
2017-04-04T11:39:39.960Z,101145
2017-04-04T11:40:39.964Z,101140
2017-04-04T11:41:39.496Z,101147
2017-04-04T11:42:40.132Z,101146
2017-04-04T11:43:39.521Z,101142
2017-04-04T11:44:41.070Z,101149
2017-04-04T11:45:39.709Z,101142
2017-04-04T11:46:40.253Z,101145
2017-04-04T11:47:40.258Z,101142
2017-04-04T11:48:41.017Z,101140
2017-04-04T11:49:40.592Z,101136
2017-04-04T11:50:39.897Z,101134
2017-04-04T11:51:40.499Z,101131
2017-04-04T11:52:40.477Z,101139
2017-04-04T11:53:39.953Z,101134
2017-04-04T11:54:40.075Z,101132
2017-04-04T11:55:40.660Z,101130
2017-04-04T11:56:40.619Z,101142
2017-04-04T11:57:41.666Z,101141
2017-04-04T11:58:40.167Z,101133
2017-04-04T11:59:40.925Z,101135
2017-04-04T12:00:40.841Z,101136
2017-04-04T12:01:41.525Z,101136
2017-04-04T12:02:40.945Z,101130
2017-04-04T12:03:40.403Z,101131
2017-04-04T12:04:41.535Z,101133
2017-04-04T12:05:41.700Z,101129
2017-04-04T12:06:40.592Z,101132
2017-04-04T12:07:41.188Z,101136
2017-04-04T12:08:41.245Z,101133
2017-04-04T12:09:41.328Z,101126
2017-04-04T12:10:41.501Z,101131
2017-04-04T12:11:40.985Z,101131
2017-04-04T12:12:41.044Z,101127
2017-04-04T12:13:41.549Z,101128
2017-04-04T12:14:41.101Z,101129
2017-04-04T12:15:42.963Z,101129
2017-04-04T12:16:41.297Z,101131
2017-04-04T12:17:41.869Z,101130
2017-04-04T12:18:41.365Z,101130
2017-04-04T12:19:41.407Z,101134
2017-04-04T12:20:41.507Z,101125
2017-04-04T12:21:42.110Z,101125
2017-04-04T12:22:43.009Z,101129
2017-04-04T12:23:42.195Z,101131
2017-04-04T12:24:41.723Z,101133
2017-04-04T12:25:42.359Z,101133
2017-04-04T12:26:43.540Z,101130
2017-04-04T12:27:41.898Z,101127
2017-04-04T12:28:43.717Z,101129
2017-04-04T12:29:41.990Z,101127
2017-04-04T12:30:42.493Z,101123
2017-04-04T12:31:42.026Z,101131
2017-04-04T12:32:43.699Z,101128
2017-04-04T12:33:42.634Z,101129
2017-04-04T12:34:42.649Z,101129
2017-04-04T12:35:42.221Z,101123
2017-04-04T12:36:44.082Z,101128